Time;durP1;ratioP1;P1;durP2;ratioP2;P2;SDS_P1;SDS_P2;PMS_P1;PMS_P2;Temp;Humidity;BMP_temperature;BMP_pressure;BME280_temperature;BME280_humidity;BME280_pressure;Samples;Min_cycle;Max_cycle;Signal;HPM_P1;HPM_P2
2023/02/16 00:01:41;;;;;;;65.67;34.70;;;6.90;99.90;;;;;;5175222;22;20135;-94
2023/02/16 00:03:42;;;;;;;67.83;33.97;;;6.70;99.90;;;;;;5150989;23;20144;-94
2023/02/16 00:05:51;;;;;;;70.20;36.33;;;6.70;99.90;;;;;;5150719;23;20151;-95
2023/02/16 00:07:55;;;;;;;71.90;35.37;;;6.60;99.90;;;;;;5125445;23;20152;-95
2023/02/16 00:09:56;;;;;;;65.83;34.73;;;6.60;99.90;;;;;;5126109;23;20184;-94
2023/02/16 00:14:21;;;;;;;70.43;36.37;;;6.60;99.90;;;;;;5150162;23;20234;-95
2023/02/16 00:16:36;;;;;;;68.07;34.97;;;6.90;99.90;;;;;;5130397;23;20160;-94
2023/02/16 00:18:37;;;;;;;68.73;35.73;;;6.80;99.90;;;;;;5124584;23;20152;-95
2023/02/16 00:20:41;;;;;;;69.83;35.73;;;6.70;99.90;;;;;;5123695;23;20183;-94
2023/02/16 00:22:42;;;;;;;75.87;37.43;;;6.60;99.90;;;;;;5122661;23;20156;-95
2023/02/16 00:24:45;;;;;;;72.87;36.93;;;6.60;99.90;;;;;;5123687;23;20184;-95
2023/02/16 00:26:47;;;;;;;78.03;36.73;;;6.50;99.90;;;;;;5126611;23;20160;-94
2023/02/16 00:29:01;;;;;;;77.60;37.20;;;6.40;99.90;;;;;;5123909;23;20211;-94
2023/02/16 00:31:10;;;;;;;73.47;36.17;;;6.20;99.90;;;;;;5125626;23;20282;-94
2023/02/16 00:33:22;;;;;;;73.47;36.60;;;6.30;99.90;;;;;;5127713;23;20230;-94
2023/02/16 00:35:28;;;;;;;68.90;36.40;;;6.40;99.90;;;;;;5123370;23;20503;-95
2023/02/16 00:37:29;;;;;;;67.30;36.00;;;6.50;99.90;;;;;;5125891;23;20161;-95
2023/02/16 00:39:36;;;;;;;75.17;35.77;;;6.40;99.90;;;;;;5148925;23;20168;-95
2023/02/16 00:41:50;;;;;;;65.13;35.00;;;6.40;99.90;;;;;;5126074;23;20152;-95
2023/02/16 00:43:53;;;;;;;72.97;36.80;;;6.40;99.90;;;;;;5126000;23;20917;-95
2023/02/16 00:45:55;;;;;;;78.63;35.97;;;6.40;99.90;;;;;;5127721;23;20216;-95
2023/02/16 00:47:59;;;;;;;80.77;38.13;;;6.40;99.90;;;;;;5128865;23;20145;-94
2023/02/16 00:50:30;;;;;;;76.63;38.17;;;6.30;99.90;;;;;;5125596;23;20193;-94
2023/02/16 00:52:34;;;;;;;71.80;36.87;;;6.40;99.90;;;;;;5108054;23;20164;-94
2023/02/16 00:54:35;;;;;;;75.37;38.10;;;6.50;99.90;;;;;;5126929;23;20182;-94
2023/02/16 00:56:37;;;;;;;80.53;38.00;;;6.60;99.90;;;;;;5124507;23;20152;-93
2023/02/16 00:58:38;;;;;;;73.73;37.93;;;6.50;99.90;;;;;;5124440;23;20579;-95
2023/02/16 01:00:56;;;;;;;82.93;40.07;;;6.60;99.90;;;;;;5124955;23;20203;-94
2023/02/16 01:03:00;;;;;;;77.20;37.43;;;6.70;99.90;;;;;;5125917;23;20163;-93
2023/02/16 01:05:01;;;;;;;76.23;39.40;;;6.70;99.90;;;;;;5125381;23;20167;-94
2023/02/16 01:11:56;;;;;;;82.17;40.97;;;6.70;99.90;;;;;;5149678;23;20200;-94
2023/02/16 01:13:57;;;;;;;84.37;41.30;;;6.60;99.90;;;;;;5125072;23;20684;-94
2023/02/16 01:16:01;;;;;;;83.53;40.23;;;6.90;99.90;;;;;;5150227;23;20162;-94
2023/02/16 01:18:09;;;;;;;82.73;40.03;;;6.90;99.90;;;;;;5125079;23;20152;-95
2023/02/16 01:20:35;;;;;;;;;;;;;;;;;;;;;
2023/02/16 01:22:36;;;;;;;73.70;38.67;;;6.40;99.90;;;;;;5150973;23;20159;-93
2023/02/16 01:24:36;;;;;;;90.27;39.50;;;6.40;99.90;;;;;;5127006;23;20203;-94
2023/02/16 01:26:41;;;;;;;77.50;39.87;;;6.30;99.90;;;;;;5126080;23;20148;-95
2023/02/16 01:28:42;;;;;;;82.33;40.57;;;6.20;99.90;;;;;;5125758;23;20183;-95
2023/02/16 01:31:17;;;;;;;77.23;38.97;;;6.20;99.90;;;;;;5127186;23;20175;-95
2023/02/16 01:33:22;;;;;;;84.33;38.53;;;6.20;99.90;;;;;;5153637;23;20235;-95
2023/02/16 01:35:34;;;;;;;78.97;38.67;;;6.30;99.90;;;;;;5125640;23;20207;-95
2023/02/16 01:37:35;;;;;;;83.60;40.23;;;6.20;99.90;;;;;;5124001;23;20148;-93
2023/02/16 01:39:39;;;;;;;79.10;39.40;;;6.10;99.90;;;;;;5154551;23;20171;-94
2023/02/16 01:42:03;;;;;;;75.43;39.37;;;6.20;99.90;;;;;;5141652;23;20132;-94
2023/02/16 01:44:33;;;;;;;81.03;38.90;;;6.40;99.90;;;;;;5127124;23;20208;-94
2023/02/16 01:46:55;;;;;;;74.93;39.67;;;6.60;99.90;;;;;;5114922;23;20622;-95
2023/02/16 01:48:56;;;;;;;77.23;39.43;;;6.50;99.90;;;;;;5125382;23;20172;-95
2023/02/16 01:51:11;;;;;;;75.33;39.43;;;6.50;99.90;;;;;;5148107;23;20191;-95
2023/02/16 01:53:33;;;;;;;72.97;37.03;;;6.50;99.90;;;;;;5124069;23;20148;-94
2023/02/16 01:55:40;;;;;;;76.53;37.30;;;6.50;99.90;;;;;;5125205;23;20699;-94
2023/02/16 01:57:55;;;;;;;74.50;38.07;;;6.40;99.90;;;;;;5125505;23;20174;-94
2023/02/16 02:00:06;;;;;;;74.40;38.03;;;6.50;99.90;;;;;;5123811;23;20164;-96
2023/02/16 02:02:30;;;;;;;72.83;38.87;;;6.60;99.90;;;;;;5148385;23;20159;-94
2023/02/16 02:07:18;;;;;;;74.07;38.33;;;6.40;99.90;;;;;;5150385;23;20151;-94
2023/02/16 02:09:29;;;;;;;73.50;38.00;;;6.60;99.90;;;;;;5123690;23;20180;-95
2023/02/16 02:11:44;;;;;;;71.57;36.43;;;6.60;99.90;;;;;;5128192;23;20191;-95
2023/02/16 02:14:02;;;;;;;75.73;38.43;;;6.50;99.90;;;;;;5150636;23;20151;-94
2023/02/16 02:16:33;;;;;;;64.90;35.93;;;6.50;99.90;;;;;;5151080;23;20534;-95
2023/02/16 02:18:36;;;;;;;73.53;37.63;;;6.60;99.90;;;;;;5110480;23;20155;-94
2023/02/16 02:23:53;;;;;;;70.60;35.10;;;6.50;99.90;;;;;;5151505;23;20242;-95
2023/02/16 02:26:29;;;;;;;68.23;36.03;;;6.40;99.90;;;;;;5127757;23;20151;-95
2023/02/16 02:29:07;;;;;;;69.93;35.70;;;6.70;99.90;;;;;;5130574;23;20167;-93
2023/02/16 02:31:31;;;;;;;77.43;37.37;;;6.80;99.90;;;;;;5131110;23;20202;-95
2023/02/16 02:34:43;;;;;;;83.17;36.37;;;6.60;99.90;;;;;;5124904;23;20159;-94
2023/02/16 02:37:08;;;;;;;75.30;36.23;;;6.70;99.90;;;;;;5050583;23;20186;-95
2023/02/16 02:39:15;;;;;;;68.67;34.70;;;6.60;99.90;;;;;;5109521;23;20203;-93
2023/02/16 02:44:05;;;;;;;71.30;35.13;;;6.40;99.90;;;;;;5151078;23;20159;-94
2023/02/16 02:46:09;;;;;;;70.43;36.47;;;6.60;99.90;;;;;;5124199;23;20574;-95
2023/02/16 02:48:10;;;;;;;69.90;36.63;;;6.50;99.90;;;;;;5124279;23;20153;-95
2023/02/16 02:53:23;;;;;;;65.77;35.40;;;6.70;99.90;;;;;;5075553;23;20166;-93
2023/02/16 03:00:52;;;;;;;68.73;34.40;;;6.90;99.90;;;;;;5151869;23;20195;-95
2023/02/16 03:03:37;;;;;;;67.00;35.27;;;6.90;99.90;;;;;;5128213;23;20159;-93
2023/02/16 03:06:14;;;;;;;71.50;35.60;;;6.70;99.90;;;;;;5155159;23;20182;-93
2023/02/16 03:08:22;;;;;;;64.80;34.80;;;6.60;99.90;;;;;;5130553;23;20183;-94
2023/02/16 03:12:59;;;;;;;65.57;32.97;;;6.70;99.90;;;;;;5151589;23;20159;-94
2023/02/16 03:15:12;;;;;;;70.30;34.23;;;6.70;99.90;;;;;;5122645;23;20156;-93
2023/02/16 03:29:23;;;;;;;64.27;34.13;;;6.80;99.90;;;;;;5151922;23;20187;-94
2023/02/16 03:31:39;;;;;;;60.60;33.70;;;6.80;99.90;;;;;;5125587;23;20215;-95
2023/02/16 03:33:53;;;;;;;61.90;33.47;;;6.70;99.90;;;;;;5148274;23;20128;-94
2023/02/16 03:36:06;;;;;;;67.37;33.23;;;6.60;99.90;;;;;;5148495;23;20155;-94
2023/02/16 03:38:14;;;;;;;62.03;32.43;;;6.60;99.90;;;;;;5127664;23;20176;-95
2023/02/16 03:40:29;;;;;;;62.63;32.93;;;6.60;99.90;;;;;;5125462;23;20180;-94
2023/02/16 03:42:30;;;;;;;61.37;33.70;;;6.50;99.90;;;;;;5122624;23;20156;-95
2023/02/16 03:44:37;;;;;;;57.77;32.33;;;6.70;99.90;;;;;;5147011;23;20160;-96
2023/02/16 03:46:55;;;;;;;63.60;32.87;;;6.80;99.90;;;;;;5128727;23;20156;-94
2023/02/16 03:48:56;;;;;;;63.27;32.60;;;6.90;99.90;;;;;;5140210;23;20164;-94
2023/02/16 03:51:39;;;;;;;64.87;33.70;;;6.90;99.90;;;;;;5165405;23;20178;-95
2023/02/16 03:53:57;;;;;;;62.30;33.93;;;6.90;99.90;;;;;;5125710;23;20156;-95
2023/02/16 03:55:58;;;;;;;61.50;32.17;;;6.90;99.90;;;;;;5121460;23;20160;-94
2023/02/16 03:58:02;;;;;;;62.87;32.07;;;6.90;99.90;;;;;;5125029;23;20158;-94
2023/02/16 04:00:04;;;;;;;60.30;32.60;;;6.90;99.90;;;;;;5149171;23;20172;-94
2023/02/16 04:02:19;;;;;;;58.90;32.50;;;6.80;99.90;;;;;;5151600;23;20162;-93
2023/02/16 04:04:40;;;;;;;60.80;31.47;;;6.70;99.90;;;;;;5124963;23;20206;-95
2023/02/16 04:06:51;;;;;;;58.80;31.43;;;6.80;99.90;;;;;;5126151;23;20133;-95
2023/02/16 04:08:54;;;;;;;55.07;30.30;;;7.00;99.90;;;;;;5149306;23;20195;-94
2023/02/16 04:11:00;;;;;;;59.83;31.27;;;7.00;99.90;;;;;;5125790;23;20223;-94
2023/02/16 04:13:13;;;;;;;58.67;31.50;;;6.90;99.90;;;;;;5123930;23;20172;-95
2023/02/16 04:15:26;;;;;;;56.87;31.60;;;7.00;99.90;;;;;;5148368;23;20155;-96
2023/02/16 04:17:27;;;;;;;62.00;31.83;;;7.00;99.90;;;;;;5123859;23;20151;-94
2023/02/16 04:19:44;;;;;;;;;;;;;;;;;;;;;
2023/02/16 04:22:16;;;;;;;55.90;30.93;;;7.20;99.90;;;;;;5148970;23;20164;-94
2023/02/16 04:24:21;;;;;;;57.83;32.37;;;7.30;99.90;;;;;;5124657;23;20156;-95
2023/02/16 04:26:22;;;;;;;56.27;30.73;;;7.40;99.90;;;;;;5124132;23;20152;-96
2023/02/16 04:28:27;;;;;;;64.80;32.00;;;7.40;99.90;;;;;;5124990;23;20170;-95
2023/02/16 04:30:45;;;;;;;58.93;31.70;;;7.20;99.90;;;;;;5125032;23;20199;-94
2023/02/16 04:32:51;;;;;;;71.37;31.33;;;7.20;99.90;;;;;;5122915;23;20156;-94
2023/02/16 04:34:59;;;;;;;56.60;31.23;;;7.40;99.90;;;;;;5123628;23;20159;-94
2023/02/16 04:37:20;;;;;;;58.50;30.33;;;7.10;99.90;;;;;;5147709;23;20144;-94
2023/02/16 04:39:30;;;;;;;64.27;32.47;;;7.00;99.90;;;;;;5125428;23;20183;-95
2023/02/16 04:41:31;;;;;;;60.67;31.97;;;7.00;99.90;;;;;;5125660;23;20706;-95
2023/02/16 04:43:48;;;;;;;57.07;32.33;;;7.10;99.90;;;;;;5123039;23;20152;-95
2023/02/16 04:45:49;;;;;;;54.33;30.70;;;7.20;99.90;;;;;;5150197;23;20156;-94
2023/02/16 04:47:56;;;;;;;62.00;30.40;;;7.30;99.90;;;;;;5125957;23;20171;-95
2023/02/16 04:49:57;;;;;;;60.60;30.77;;;7.10;99.90;;;;;;5122751;23;20156;-95
2023/02/16 04:52:02;;;;;;;57.03;30.73;;;7.10;99.90;;;;;;5122635;23;20196;-96
2023/02/16 04:54:03;;;;;;;60.53;33.83;;;7.50;99.90;;;;;;5124615;23;20148;-94
2023/02/16 04:56:40;;;;;;;;;;;;;;;;;;;;;
2023/02/16 04:58:47;;;;;;;61.17;32.63;;;7.80;99.90;;;;;;5150518;23;20215;-95
2023/02/16 05:00:48;;;;;;;58.60;32.53;;;7.50;99.90;;;;;;5128750;23;20149;-95
2023/02/16 05:02:51;;;;;;;60.53;32.40;;;7.50;99.90;;;;;;5125888;23;20156;-95
2023/02/16 05:05:07;;;;;;;63.33;31.27;;;7.50;99.90;;;;;;5151123;23;20175;-94
2023/02/16 05:07:08;;;;;;;56.77;31.03;;;7.20;99.90;;;;;;5151833;23;20158;-94
2023/02/16 05:09:11;;;;;;;55.47;31.10;;;7.20;99.90;;;;;;5127028;23;20176;-95
2023/02/16 05:16:20;;;;;;;59.70;32.20;;;7.50;99.90;;;;;;5149806;23;20152;-95
2023/02/16 05:18:23;;;;;;;63.20;32.03;;;7.70;99.90;;;;;;5148627;23;20160;-95
2023/02/16 05:21:28;;;;;;;62.13;31.47;;;7.60;99.90;;;;;;5146240;23;20231;-95
2023/02/16 05:22:52;;;;;;;57.77;31.67;;;7.50;99.90;;;;;;5146498;23;20151;-95
2023/02/16 05:24:55;;;;;;;60.10;31.80;;;7.50;99.90;;;;;;5124159;23;20155;-95
2023/02/16 05:26:57;;;;;;;53.60;31.57;;;7.40;99.90;;;;;;5150639;23;20159;-94
2023/02/16 05:29:09;;;;;;;;;;;;;;;;;;;;;
2023/02/16 05:31:13;;;;;;;57.87;31.30;;;7.30;99.90;;;;;;5145749;23;20721;-95
2023/02/16 05:33:16;;;;;;;53.97;30.47;;;7.20;99.90;;;;;;5121244;23;20156;-95
2023/02/16 05:35:17;;;;;;;59.30;32.90;;;7.20;99.90;;;;;;5124643;23;20188;-94
2023/02/16 05:37:21;;;;;;;57.10;31.03;;;7.20;99.90;;;;;;5123164;23;20147;-95
2023/02/16 05:39:33;;;;;;;57.53;33.10;;;7.20;99.90;;;;;;5127402;23;20180;-93
2023/02/16 05:41:39;;;;;;;58.63;31.13;;;7.40;99.90;;;;;;5125973;23;20148;-95
2023/02/16 05:46:33;;;;;;;52.50;29.70;;;7.20;99.90;;;;;;5135360;23;20202;-95
2023/02/16 05:48:37;;;;;;;55.77;30.10;;;7.10;99.90;;;;;;5127990;23;20156;-95
2023/02/16 05:50:54;;;;;;;63.17;31.37;;;7.00;99.90;;;;;;5151904;23;20187;-95
2023/02/16 05:53:06;;;;;;;58.80;31.10;;;7.10;99.90;;;;;;5123792;23;20646;-95
2023/02/16 05:55:15;;;;;;;57.53;30.00;;;7.20;99.90;;;;;;5123955;23;20152;-94
2023/02/16 05:57:18;;;;;;;57.57;30.70;;;7.10;99.90;;;;;;5127682;23;20156;-94
2023/02/16 05:59:38;;;;;;;56.27;30.20;;;7.20;99.90;;;;;;5135861;23;20167;-96
2023/02/16 06:01:48;;;;;;;54.77;31.03;;;7.20;99.90;;;;;;5136411;23;20531;-96
2023/02/16 06:04:35;;;;;;;;;;;;;;;;;;;;;
2023/02/16 06:06:45;;;;;;;53.77;28.30;;;7.40;99.90;;;;;;5149805;23;20170;-95
2023/02/16 06:08:47;;;;;;;55.27;30.33;;;7.40;99.90;;;;;;5123346;23;20172;-94
2023/02/16 06:10:51;;;;;;;58.60;30.87;;;7.50;99.90;;;;;;5122643;23;20214;-95
2023/02/16 06:12:52;;;;;;;50.27;29.53;;;7.50;99.90;;;;;;5121959;23;20156;-95
2023/02/16 06:14:54;;;;;;;51.43;29.53;;;7.50;99.90;;;;;;5120859;23;20315;-94
2023/02/16 06:16:57;;;;;;;51.57;29.47;;;7.30;99.90;;;;;;5121857;23;20152;-95
2023/02/16 06:18:59;;;;;;;51.77;29.77;;;7.30;99.90;;;;;;5148367;23;20175;-93
2023/02/16 06:21:00;;;;;;;54.67;30.33;;;7.30;99.90;;;;;;5123271;23;20144;-94
2023/02/16 06:23:01;;;;;;;53.83;30.13;;;7.40;99.90;;;;;;5122604;23;20210;-93
2023/02/16 06:25:02;;;;;;;53.63;29.43;;;7.30;99.90;;;;;;5121826;23;20156;-94
2023/02/16 06:27:04;;;;;;;55.03;28.53;;;7.30;99.90;;;;;;5147302;23;20155;-94
2023/02/16 06:29:05;;;;;;;52.03;28.97;;;7.20;99.90;;;;;;5122064;23;20188;-94
2023/02/16 06:31:06;;;;;;;53.63;28.90;;;7.40;99.90;;;;;;5123393;23;20191;-94
2023/02/16 06:54:54;;;;;;;51.67;29.47;;;7.40;99.90;;;;;;5168422;22;20185;-94
2023/02/16 06:56:55;;;;;;;49.57;29.60;;;7.60;99.90;;;;;;5178641;22;20163;-93
2023/02/16 06:58:56;;;;;;;54.60;29.50;;;7.60;99.90;;;;;;5180268;22;20166;-93
2023/02/16 07:00:56;;;;;;;50.70;27.73;;;7.60;99.90;;;;;;5178545;22;20234;-94
2023/02/16 07:02:57;;;;;;;48.73;29.03;;;7.60;99.90;;;;;;5150490;23;20591;-93
2023/02/16 07:04:58;;;;;;;50.97;29.37;;;7.50;99.90;;;;;;5149126;23;20154;-93
2023/02/16 07:06:59;;;;;;;49.97;28.33;;;7.60;99.90;;;;;;5176000;22;20159;-93
2023/02/16 07:09:00;;;;;;;53.10;29.30;;;7.50;99.90;;;;;;5147588;23;20183;-94
2023/02/16 07:11:01;;;;;;;56.50;29.63;;;7.50;99.90;;;;;;5148605;23;20511;-94
2023/02/16 07:13:01;;;;;;;56.07;29.57;;;7.70;99.90;;;;;;5146941;23;20212;-93
2023/02/16 07:15:03;;;;;;;51.97;29.87;;;7.90;99.90;;;;;;5146820;23;20166;-95
2023/02/16 07:17:03;;;;;;;48.50;28.60;;;7.90;99.90;;;;;;5146637;23;20148;-94
2023/02/16 07:19:05;;;;;;;51.73;29.30;;;7.90;99.90;;;;;;5147465;23;20523;-95
2023/02/16 07:21:06;;;;;;;56.97;29.03;;;8.00;99.90;;;;;;5151267;23;20151;-94
2023/02/16 07:23:07;;;;;;;51.83;28.20;;;8.00;99.90;;;;;;5149744;23;20166;-93
2023/02/16 07:25:08;;;;;;;49.67;28.63;;;7.90;99.90;;;;;;5148683;23;20510;-93
2023/02/16 07:27:08;;;;;;;53.07;28.77;;;7.80;99.90;;;;;;5149661;23;20136;-94
2023/02/16 07:29:09;;;;;;;49.17;28.07;;;7.70;99.90;;;;;;5149753;23;20189;-93
2023/02/16 07:31:20;;;;;;;50.23;27.50;;;8.00;99.90;;;;;;5146762;23;20510;-94
2023/02/16 07:33:21;;;;;;;49.60;27.10;;;8.10;99.90;;;;;;5147351;23;20139;-93
2023/02/16 11:27:13;;;;;;;39.35;23.65;;;11.50;99.90;;;;;;5171956;22;20438;-93
2023/02/16 11:29:18;;;;;;;40.83;23.60;;;11.60;99.90;;;;;;5157547;23;20172;-95
2023/02/16 11:31:36;;;;;;;32.72;19.52;;;11.60;99.90;;;;;;5144382;23;20226;-94
2023/02/16 11:33:39;;;;;;;38.67;24.02;;;11.50;99.90;;;;;;5169231;23;20158;-95
2023/02/16 11:35:43;;;;;;;36.35;23.67;;;11.50;99.90;;;;;;5144428;23;20160;-94
2023/02/16 11:37:47;;;;;;;47.35;22.42;;;11.40;99.90;;;;;;5144743;23;20151;-95
2023/02/16 11:39:55;;;;;;;39.95;22.13;;;11.50;99.90;;;;;;5143803;23;20252;-94
2023/02/16 11:42:23;;;;;;;43.40;23.60;;;11.70;99.90;;;;;;5144626;23;20166;-95
2023/02/16 11:44:32;;;;;;;37.50;22.17;;;11.80;99.90;;;;;;5144004;23;20154;-95
2023/02/16 11:46:39;;;;;;;41.22;22.23;;;11.90;99.90;;;;;;5144313;23;20151;-95
2023/02/16 11:48:41;;;;;;;38.70;21.88;;;11.90;99.90;;;;;;5144115;23;20252;-95
2023/02/16 11:51:07;;;;;;;37.88;21.98;;;12.10;99.90;;;;;;5144646;23;20183;-94
2023/02/16 11:53:39;;;;;;;36.75;22.05;;;12.00;99.90;;;;;;5144537;23;20230;-94
2023/02/16 11:55:45;;;;;;;41.85;20.50;;;12.20;99.90;;;;;;5142083;23;20156;-94
2023/02/16 11:57:46;;;;;;;35.08;19.58;;;12.50;99.90;;;;;;5147425;23;20152;-95
2023/02/16 11:59:50;;;;;;;29.85;17.75;;;12.40;99.90;;;;;;5145385;23;20251;-95
2023/02/16 12:02:03;;;;;;;38.40;20.63;;;12.30;99.90;;;;;;5144445;23;20490;-96
2023/02/16 12:04:25;;;;;;;40.08;22.05;;;12.30;99.90;;;;;;5169277;23;20227;-94
2023/02/16 12:07:14;;;;;;;37.03;20.92;;;12.30;99.90;;;;;;5144057;23;20152;-94
2023/02/16 12:09:42;;;;;;;34.42;19.42;;;12.70;99.90;;;;;;5119957;23;20230;-94
2023/02/16 12:12:08;;;;;;;36.08;20.95;;;12.30;99.90;;;;;;5144880;23;20188;-93
2023/02/16 12:14:28;;;;;;;30.10;19.23;;;12.30;99.90;;;;;;5170046;23;20158;-95
2023/02/16 12:16:39;;;;;;;30.83;19.42;;;12.50;99.90;;;;;;5144761;23;20158;-95
2023/02/16 12:19:01;;;;;;;38.10;20.92;;;12.40;99.90;;;;;;5144356;23;20203;-95
2023/02/16 12:21:20;;;;;;;32.00;20.25;;;12.40;99.90;;;;;;5144195;23;20234;-94
2023/02/16 12:23:45;;;;;;;33.38;20.67;;;12.40;99.90;;;;;;5144508;23;20155;-93
2023/02/16 12:25:46;;;;;;;33.42;20.58;;;12.70;99.90;;;;;;5143948;23;20201;-95
2023/02/16 12:28:34;;;;;;;32.72;19.85;;;12.70;99.90;;;;;;5143755;23;20640;-95
2023/02/16 12:31:06;;;;;;;36.92;20.33;;;12.80;99.90;;;;;;5044566;23;20154;-94
2023/02/16 12:33:25;;;;;;;33.53;20.20;;;12.70;99.90;;;;;;5069376;23;20158;-93
2023/02/16 12:35:47;;;;;;;32.90;20.33;;;12.80;99.90;;;;;;5082252;23;20152;-93
2023/02/16 12:38:06;;;;;;;33.13;19.77;;;12.80;99.90;;;;;;5143540;23;20151;-96
2023/02/16 12:40:50;;;;;;;31.35;20.55;;;13.00;99.90;;;;;;5121032;23;20243;-96
2023/02/16 12:42:51;;;;;;;40.47;20.98;;;13.10;99.90;;;;;;5132841;23;20151;-94
2023/02/16 12:45:03;;;;;;;41.13;20.58;;;12.90;99.90;;;;;;5143636;23;20171;-93
2023/02/16 12:47:12;;;;;;;37.15;20.27;;;13.00;99.90;;;;;;5143216;23;20147;-94
2023/02/16 12:49:26;;;;;;;33.40;19.15;;;13.10;99.90;;;;;;5143318;23;20179;-95
2023/02/16 12:51:42;;;;;;;32.15;19.58;;;13.20;99.90;;;;;;5169197;23;20186;-94
2023/02/16 12:54:21;;;;;;;29.15;18.77;;;13.20;99.90;;;;;;5144911;23;20147;-94
2023/02/16 12:56:30;;;;;;;34.15;19.83;;;13.10;99.90;;;;;;5140412;23;20152;-93
2023/02/16 12:58:44;;;;;;;31.98;18.70;;;12.90;99.90;;;;;;5185888;22;20159;-94
2023/02/16 13:01:03;;;;;;;34.05;20.20;;;12.90;99.90;;;;;;5155734;23;20629;-94
2023/02/16 13:03:45;;;;;;;32.95;20.30;;;13.00;99.90;;;;;;5143929;23;20163;-94
2023/02/16 13:06:10;;;;;;;36.30;18.90;;;13.00;99.90;;;;;;5143132;23;20215;-93
2023/02/16 13:08:23;;;;;;;33.50;19.77;;;13.00;99.90;;;;;;5168109;23;20158;-95
2023/02/16 13:10:43;;;;;;;32.45;19.67;;;13.00;99.90;;;;;;5143906;23;20170;-94
2023/02/16 13:12:53;;;;;;;36.63;18.13;;;13.00;99.90;;;;;;5169078;23;20304;-96
2023/02/16 13:15:11;;;;;;;31.95;18.45;;;13.00;99.90;;;;;;5143362;23;20459;-94
2023/02/16 13:17:18;;;;;;;34.55;20.15;;;13.10;99.90;;;;;;5143865;23;20151;-94
2023/02/16 13:19:19;;;;;;;32.10;19.40;;;13.20;99.90;;;;;;5143309;23;20167;-95
2023/02/16 13:21:52;;;;;;;35.10;20.00;;;13.10;99.90;;;;;;5143957;23;20478;-95
2023/02/16 13:24:30;;;;;;;38.30;18.48;;;13.30;99.90;;;;;;5143346;23;20213;-95
2023/02/16 13:26:47;;;;;;;29.17;19.33;;;13.30;99.90;;;;;;5143204;23;20644;-94
2023/02/16 13:29:09;;;;;;;30.80;18.48;;;13.50;99.90;;;;;;5143156;23;20187;-95
2023/02/16 13:31:52;;;;;;;34.10;18.67;;;13.50;99.90;;;;;;5168156;23;20221;-96
2023/02/16 13:34:30;;;;;;;28.27;18.17;;;13.70;99.90;;;;;;5169110;23;20155;-95
2023/02/16 13:36:39;;;;;;;30.35;18.58;;;13.50;99.90;;;;;;5127430;23;20160;-96
2023/02/16 13:39:17;;;;;;;37.72;19.08;;;13.40;99.90;;;;;;5142613;23;20266;-94
2023/02/16 13:41:47;;;;;;;33.67;18.25;;;13.30;99.90;;;;;;5167942;23;20613;-95
2023/02/16 13:43:59;;;;;;;31.50;17.23;;;13.20;99.90;;;;;;5085578;23;20158;-94
2023/02/16 13:46:05;;;;;;;32.55;18.58;;;13.00;99.90;;;;;;5142987;23;20270;-93
2023/02/16 13:48:29;;;;;;;32.95;18.30;;;13.00;99.90;;;;;;5143038;23;20197;-95
2023/02/16 13:50:33;;;;;;;39.25;18.58;;;13.00;99.90;;;;;;5168018;23;20162;-94
2023/02/16 13:52:37;;;;;;;31.88;18.33;;;13.00;99.90;;;;;;5143295;23;20151;-96
2023/02/16 13:54:43;;;;;;;33.30;17.30;;;13.00;99.90;;;;;;5143881;23;20150;-93
2023/02/16 13:56:44;;;;;;;26.40;15.88;;;12.90;99.90;;;;;;5167958;23;20178;-94
2023/02/16 13:58:45;;;;;;;28.38;16.60;;;12.90;99.90;;;;;;5169184;22;20166;-94
2023/02/16 14:00:48;;;;;;;30.67;17.27;;;13.00;99.90;;;;;;5144423;23;20155;-95
2023/02/16 14:03:08;;;;;;;29.15;17.73;;;13.00;99.90;;;;;;5170407;23;20238;-94
2023/02/16 14:05:11;;;;;;;36.65;17.83;;;13.00;99.90;;;;;;5144735;23;20152;-93
2023/02/16 14:07:18;;;;;;;35.17;17.23;;;12.90;99.90;;;;;;5144691;23;20151;-94
2023/02/16 14:09:39;;;;;;;39.15;16.73;;;12.80;99.90;;;;;;5149592;23;20182;-92
2023/02/16 14:12:15;;;;;;;27.35;16.70;;;12.70;99.90;;;;;;5119588;23;20250;-96
2023/02/16 14:14:33;;;;;;;32.00;16.48;;;13.00;99.90;;;;;;5139797;23;20151;-96
2023/02/16 14:16:34;;;;;;;36.90;17.42;;;12.90;99.90;;;;;;5144575;23;20151;-94
2023/02/16 14:18:54;;;;;;;34.50;17.98;;;13.00;99.90;;;;;;5172431;23;20153;-94
2023/02/16 14:21:03;;;;;;;31.25;17.02;;;13.20;99.90;;;;;;5171760;23;20632;-93
2023/02/16 14:23:06;;;;;;;38.75;18.00;;;13.30;99.90;;;;;;5145016;23;20154;-93
2023/02/16 14:25:21;;;;;;;32.95;17.05;;;13.30;99.90;;;;;;5144395;23;20274;-95
2023/02/16 14:27:42;;;;;;;30.65;16.88;;;13.30;99.90;;;;;;5144556;23;20629;-93
2023/02/16 14:29:52;;;;;;;31.13;16.60;;;13.40;99.90;;;;;;5144544;23;20191;-93
2023/02/16 14:31:59;;;;;;;27.15;16.10;;;13.30;99.90;;;;;;5169809;23;20564;-93
2023/02/16 14:34:36;;;;;;;32.85;16.88;;;13.00;99.90;;;;;;5169565;23;20228;-93
2023/02/16 14:37:09;;;;;;;27.40;16.30;;;13.10;99.90;;;;;;5124816;23;20625;-93
2023/02/16 14:39:11;;;;;;;27.83;16.58;;;13.30;99.90;;;;;;5144100;23;20622;-94
2023/02/16 14:41:26;;;;;;;30.48;16.88;;;13.20;99.90;;;;;;5144571;23;20230;-94
2023/02/16 14:43:44;;;;;;;29.95;16.27;;;13.40;99.90;;;;;;5145136;23;20152;-94
2023/02/16 14:45:48;;;;;;;31.80;15.90;;;13.40;99.90;;;;;;5144035;23;20244;-92
2023/02/16 14:48:26;;;;;;;28.67;16.25;;;13.30;99.90;;;;;;5169396;23;20151;-95
2023/02/16 14:50:38;;;;;;;30.27;16.42;;;13.20;99.90;;;;;;5144141;23;20151;-93
2023/02/16 14:52:48;;;;;;;27.92;16.25;;;13.20;99.90;;;;;;5144455;23;20230;-94
2023/02/16 14:55:21;;;;;;;32.03;15.93;;;13.20;99.90;;;;;;5144198;23;20155;-94
2023/02/16 14:57:40;;;;;;;32.85;17.05;;;13.10;99.90;;;;;;5144879;23;20148;-95
2023/02/16 14:59:51;;;;;;;26.70;16.02;;;13.10;99.90;;;;;;5144432;23;20175;-94
2023/02/16 15:01:52;;;;;;;29.58;16.02;;;13.10;99.90;;;;;;5144122;23;20155;-92
2023/02/16 15:03:55;;;;;;;29.35;16.50;;;13.10;99.90;;;;;;5169604;23;20162;-93
2023/02/16 15:06:04;;;;;;;31.55;16.45;;;13.30;99.90;;;;;;5144083;23;20144;-94
2023/02/16 15:08:15;;;;;;;24.90;16.50;;;13.30;99.90;;;;;;5144181;23;20230;-93
2023/02/16 15:10:25;;;;;;;37.42;16.42;;;13.50;99.90;;;;;;5168937;23;20167;-93
2023/02/16 15:12:31;;;;;;;29.27;15.82;;;13.40;99.90;;;;;;5145129;23;20167;-94
2023/02/16 15:14:41;;;;;;;26.33;13.48;;;13.40;99.90;;;;;;5144090;23;20548;-92
2023/02/16 15:16:43;;;;;;;21.48;12.93;;;13.60;99.90;;;;;;5168860;22;20166;-94
2023/02/16 15:18:48;;;;;;;25.20;13.32;;;13.40;99.90;;;;;;5169183;22;20167;-95
2023/02/16 15:20:52;;;;;;;25.70;13.38;;;13.40;99.90;;;;;;5169326;23;20714;-93
2023/02/16 15:23:01;;;;;;;28.33;14.77;;;13.30;99.90;;;;;;5169722;23;20158;-93
2023/02/16 15:25:15;;;;;;;22.08;14.23;;;13.30;99.90;;;;;;5195012;22;20157;-94
2023/02/16 15:27:23;;;;;;;25.95;15.38;;;13.00;99.90;;;;;;5195216;22;20209;-93
2023/02/16 15:29:26;;;;;;;24.30;13.95;;;13.00;99.90;;;;;;5170264;22;20249;-92
2023/02/16 15:31:33;;;;;;;33.67;16.02;;;12.70;99.90;;;;;;5176090;23;20217;-93
2023/02/16 15:33:37;;;;;;;23.75;13.93;;;12.70;99.90;;;;;;5174830;23;20245;-93
2023/02/16 15:35:41;;;;;;;24.27;14.75;;;12.60;99.90;;;;;;5169395;23;20158;-92
2023/02/16 15:37:42;;;;;;;33.00;15.15;;;12.60;99.90;;;;;;5168900;23;20205;-93
2023/02/16 15:39:42;;;;;;;32.22;15.50;;;12.50;99.90;;;;;;5194440;22;20178;-92
2023/02/16 15:41:48;;;;;;;30.30;15.93;;;12.60;99.90;;;;;;5169028;23;20151;-93
2023/02/16 15:43:51;;;;;;;28.25;16.15;;;12.60;99.90;;;;;;5194224;22;20146;-94
2023/02/16 15:45:53;;;;;;;30.08;15.75;;;12.70;99.90;;;;;;5194077;22;20180;-94
2023/02/16 15:48:25;;;;;;;30.25;15.95;;;12.80;99.90;;;;;;5194316;22;20154;-94
2023/02/16 15:50:28;;;;;;;28.95;15.95;;;12.90;99.90;;;;;;5168920;23;20159;-93
2023/02/16 15:52:33;;;;;;;26.67;15.25;;;12.70;99.90;;;;;;5169200;23;20679;-93
2023/02/16 15:54:35;;;;;;;28.92;15.57;;;12.60;99.90;;;;;;5168786;23;20165;-92
2023/02/16 15:56:43;;;;;;;29.83;16.23;;;12.70;99.90;;;;;;5168824;22;20645;-93
2023/02/16 15:58:44;;;;;;;30.33;15.35;;;12.70;99.90;;;;;;5168796;22;20174;-94
2023/02/16 16:00:45;;;;;;;28.58;14.85;;;12.50;99.90;;;;;;5168521;23;20171;-92
2023/02/16 16:02:48;;;;;;;24.30;14.98;;;12.40;99.90;;;;;;5194394;22;20154;-94
2023/02/16 16:04:55;;;;;;;26.20;15.45;;;12.40;99.90;;;;;;5168650;23;20474;-93
2023/02/16 16:06:56;;;;;;;26.45;16.70;;;12.50;99.90;;;;;;5169262;23;20151;-94
2023/02/16 16:08:58;;;;;;;28.60;16.05;;;12.50;99.90;;;;;;5168424;22;20246;-94
2023/02/16 16:10:59;;;;;;;36.20;16.30;;;12.60;99.90;;;;;;5168485;23;20250;-93
2023/02/16 16:13:05;;;;;;;29.00;16.33;;;12.50;99.90;;;;;;5169230;23;20147;-93
2023/02/16 16:15:21;;;;;;;29.23;16.35;;;12.40;99.90;;;;;;5168671;23;20217;-94